createdAt,value
2023-03-18T00:01:54.502Z,6.00
2023-03-18T00:04:22.503Z,5.75
2023-03-18T00:06:50.454Z,5.50
2023-03-18T00:09:18.837Z,5.00
2023-03-18T00:11:47.094Z,6.00
2023-03-18T00:14:15.513Z,6.00
2023-03-18T00:16:43.633Z,6.00
2023-03-18T00:19:14.324Z,5.00
2023-03-18T00:21:42.239Z,6.00
2023-03-18T00:24:10.340Z,6.00
2023-03-18T00:26:38.656Z,6.00
2023-03-18T00:29:10.295Z,5.00
2023-03-18T00:31:39.239Z,6.00
2023-03-18T00:34:08.045Z,4.75
2023-03-18T00:36:37.355Z,5.00
2023-03-18T00:39:05.787Z,6.00
2023-03-18T00:41:36.394Z,5.75
2023-03-18T00:44:05.475Z,5.50
2023-03-18T00:46:35.345Z,4.00
2023-03-18T00:49:08.744Z,5.50
2023-03-18T00:51:38.635Z,5.25
2023-03-18T00:54:08.246Z,4.00
2023-03-18T00:56:37.517Z,6.00
2023-03-18T00:59:06.167Z,5.25
2023-03-18T01:01:34.073Z,5.00
2023-03-18T01:04:02.626Z,5.00
2023-03-18T01:06:33.974Z,4.50
2023-03-18T01:09:05.001Z,4.50
2023-03-18T01:11:33.364Z,5.00
2023-03-18T01:14:01.355Z,5.00
2023-03-18T01:16:29.832Z,4.00
2023-03-18T01:18:58.360Z,5.00
2023-03-18T01:21:26.731Z,5.00
2023-03-18T01:23:54.626Z,4.00
2023-03-18T01:26:26.198Z,5.00
2023-03-18T01:28:54.554Z,5.00
2023-03-18T01:31:24.262Z,4.00
2023-03-18T01:33:52.263Z,4.75
2023-03-18T01:36:20.160Z,4.75
2023-03-18T01:38:48.291Z,4.00
2023-03-18T01:41:17.207Z,3.75
2023-03-18T01:43:47.405Z,4.00
2023-03-18T01:46:33.397Z,5.00
2023-03-18T01:49:02.428Z,3.75
2023-03-18T01:51:31.095Z,3.50
2023-03-18T01:54:00.255Z,4.00
2023-03-18T01:56:28.229Z,4.00
2023-03-18T01:58:58.475Z,4.00
2023-03-18T02:01:30.921Z,4.00
2023-03-18T02:03:59.763Z,4.00
2023-03-18T02:06:27.705Z,4.00
2023-03-18T02:08:55.966Z,4.00
2023-03-18T02:13:51.345Z,3.00
2023-03-18T02:16:24.049Z,3.00
2023-03-18T02:18:56.486Z,4.00
2023-03-18T02:21:32.991Z,4.00
2023-03-18T02:24:06.116Z,3.00
2023-03-18T02:26:50.074Z,3.00
2023-03-18T02:29:19.400Z,4.00
2023-03-18T02:31:47.304Z,3.75
2023-03-18T02:34:15.606Z,3.25
2023-03-18T02:36:43.517Z,4.00
2023-03-18T02:39:14.048Z,3.00
2023-03-18T02:41:41.987Z,4.00
2023-03-18T02:44:12.652Z,4.00
2023-03-18T02:46:46.716Z,3.75
2023-03-18T02:49:14.645Z,3.75
2023-03-18T02:51:42.549Z,3.75
2023-03-18T02:54:12.038Z,4.00
2023-03-18T02:56:40.088Z,3.00
2023-03-18T02:59:08.445Z,3.00
2023-03-18T03:01:36.607Z,3.00
2023-03-18T03:04:06.898Z,3.00
2023-03-18T03:06:34.912Z,4.00
2023-03-18T03:09:03.576Z,3.00
2023-03-18T03:11:31.754Z,4.00
2023-03-18T03:13:59.701Z,4.00
2023-03-18T03:16:28.357Z,3.00
2023-03-18T03:18:56.527Z,3.00
2023-03-18T03:21:26.642Z,3.50
2023-03-18T03:23:54.555Z,3.00
2023-03-18T03:26:22.501Z,3.50
2023-03-18T03:28:51.012Z,3.50
2023-03-18T03:31:19.053Z,3.00
2023-03-18T03:33:47.786Z,4.00
2023-03-18T03:36:16.876Z,3.50
2023-03-18T03:38:47.056Z,3.00
2023-03-18T03:41:15.915Z,3.00
2023-03-18T03:43:44.701Z,3.25
2023-03-18T03:46:12.895Z,3.00
2023-03-18T03:48:40.824Z,3.00
2023-03-18T03:51:09.050Z,3.00
2023-03-18T03:53:37.136Z,3.00
2023-03-18T03:56:09.267Z,3.00
2023-03-18T03:58:37.260Z,3.50
2023-03-18T04:01:06.538Z,3.00
2023-03-18T04:03:34.823Z,3.00
2023-03-18T04:06:02.944Z,2.00
2023-03-18T04:08:31.667Z,2.00
2023-03-18T04:10:59.903Z,3.00
2023-03-18T04:13:29.408Z,3.00
2023-03-18T04:15:57.362Z,3.00
2023-03-18T04:18:25.994Z,3.00
2023-03-18T04:20:54.246Z,2.00
2023-03-18T04:23:22.170Z,3.00
2023-03-18T04:25:50.523Z,2.50
2023-03-18T04:28:18.451Z,2.75
2023-03-18T04:30:48.950Z,2.00
2023-03-18T04:33:16.863Z,3.00
2023-03-18T04:35:45.018Z,2.00
2023-03-18T04:38:13.022Z,3.00
2023-03-18T04:40:42.800Z,2.00
2023-03-18T04:43:11.254Z,2.00
2023-03-18T04:45:39.165Z,3.00
2023-03-18T04:48:08.518Z,3.00
2023-03-18T04:50:36.779Z,3.00
2023-03-18T04:53:04.668Z,3.00
2023-03-18T04:55:33.983Z,2.00
2023-03-18T04:58:02.182Z,3.00
2023-03-18T05:00:30.369Z,2.00
2023-03-18T05:02:58.313Z,3.00
2023-03-18T05:05:27.713Z,3.00
2023-03-18T05:07:55.610Z,2.00
2023-03-18T05:10:23.825Z,3.00
2023-03-18T05:12:51.765Z,3.00
2023-03-18T05:15:19.705Z,2.00
2023-03-18T05:17:47.624Z,3.00
2023-03-18T05:20:15.931Z,2.00
2023-03-18T05:22:45.253Z,3.50
2023-03-18T05:25:13.142Z,3.00
2023-03-18T05:27:41.835Z,2.50
2023-03-18T05:30:13.673Z,3.00
2023-03-18T05:32:41.747Z,2.00
2023-03-18T05:35:10.510Z,2.50
2023-03-18T05:37:38.496Z,3.00
2023-03-18T05:40:11.753Z,2.50
2023-03-18T05:42:54.988Z,3.00
2023-03-18T05:45:23.733Z,2.50
2023-03-18T05:47:51.821Z,3.00
2023-03-18T05:50:28.780Z,3.50
2023-03-18T05:52:56.760Z,3.50
2023-03-18T05:55:26.058Z,4.00
2023-03-18T05:57:54.275Z,3.00
2023-03-18T06:00:24.706Z,4.00
2023-03-18T06:02:54.017Z,4.00
2023-03-18T06:05:22.282Z,4.25
2023-03-18T06:07:50.216Z,4.00
2023-03-18T06:10:18.673Z,4.00
2023-03-18T06:12:47.987Z,4.50
2023-03-18T06:15:15.911Z,5.00
2023-03-18T06:17:43.959Z,5.00
2023-03-18T06:20:14.232Z,5.00
2023-03-18T06:22:43.707Z,5.00
2023-03-18T06:25:11.889Z,5.00
2023-03-18T06:27:39.809Z,5.00
2023-03-18T06:30:13.322Z,4.00
2023-03-18T06:32:41.351Z,5.75
2023-03-18T06:35:10.455Z,5.00
2023-03-18T06:37:39.162Z,5.00
2023-03-18T06:40:10.586Z,4.75
2023-03-18T06:42:39.195Z,4.50
2023-03-18T06:45:10.661Z,4.00
2023-03-18T06:47:40.908Z,4.00
2023-03-18T06:50:09.747Z,5.00
2023-03-18T06:52:38.464Z,5.00
2023-03-18T06:55:07.586Z,4.00
2023-03-18T06:57:35.513Z,4.00
2023-03-18T07:00:04.542Z,4.75
2023-03-18T07:02:32.672Z,4.00
2023-03-18T07:05:04.491Z,5.00
2023-03-18T07:07:34.256Z,4.00
2023-03-18T07:10:03.882Z,5.00
2023-03-18T07:12:32.285Z,4.00
2023-03-18T07:15:00.542Z,5.00
2023-03-18T07:17:29.547Z,5.00
2023-03-18T07:19:58.189Z,4.50
2023-03-18T07:22:27.761Z,4.25
2023-03-18T07:24:56.096Z,4.00
2023-03-18T07:27:24.542Z,4.25
2023-03-18T07:29:52.960Z,4.00
2023-03-18T07:32:20.950Z,5.00
2023-03-18T07:34:51.285Z,4.00
2023-03-18T07:37:19.206Z,4.25
2023-03-18T07:39:48.801Z,4.00
2023-03-18T07:42:16.778Z,5.75
2023-03-18T07:44:44.673Z,4.00
2023-03-18T07:47:14.577Z,4.00
2023-03-18T07:49:42.804Z,4.00
2023-03-18T07:52:11.029Z,3.75
2023-03-18T07:54:38.904Z,3.75
2023-03-18T07:57:08.322Z,4.75
2023-03-18T07:59:37.550Z,3.00
2023-03-18T08:02:08.235Z,3.50
2023-03-18T08:04:36.654Z,4.25
2023-03-18T08:07:04.598Z,3.75
2023-03-18T08:09:32.821Z,4.00
2023-03-18T08:12:00.949Z,4.25
2023-03-18T08:14:30.393Z,4.00
2023-03-18T08:16:58.389Z,3.50
2023-03-18T08:19:26.801Z,3.00
2023-03-18T08:21:55.667Z,4.00
2023-03-18T08:24:24.516Z,4.00
2023-03-18T08:26:52.624Z,4.00
2023-03-18T08:29:20.837Z,4.00
2023-03-18T08:31:50.163Z,4.00
2023-03-18T08:34:18.222Z,4.00
2023-03-18T08:36:46.247Z,3.75
2023-03-18T08:39:14.607Z,4.00
2023-03-18T08:41:44.812Z,3.00
2023-03-18T08:44:13.683Z,4.00
2023-03-18T08:46:41.588Z,4.00
2023-03-18T08:49:12.420Z,4.75
2023-03-18T08:51:40.306Z,4.50
2023-03-18T08:54:09.083Z,5.00
2023-03-18T08:56:37.057Z,4.00
2023-03-18T08:59:07.060Z,4.50
2023-03-18T09:01:35.106Z,5.00
2023-03-18T09:04:03.108Z,4.75
2023-03-18T09:06:32.758Z,6.00
2023-03-18T09:09:00.981Z,5.75
2023-03-18T09:11:29.187Z,5.00
2023-03-18T09:13:57.313Z,5.00
2023-03-18T09:16:25.173Z,5.00
2023-03-18T09:18:53.706Z,5.00
2023-03-18T09:21:22.554Z,5.25
2023-03-18T09:23:52.717Z,5.00
2023-03-18T09:26:23.785Z,5.00
2023-03-18T09:28:51.941Z,4.75
2023-03-18T09:31:20.634Z,4.50
2023-03-18T09:33:48.614Z,4.00
2023-03-18T09:36:16.558Z,4.00
2023-03-18T09:38:44.501Z,5.00
2023-03-18T09:41:22.383Z,5.00
2023-03-18T09:44:04.520Z,5.00
2023-03-18T09:46:36.494Z,5.00
2023-03-18T09:49:28.123Z,5.00
2023-03-18T09:52:00.720Z,4.00
2023-03-18T09:54:37.570Z,5.00
2023-03-18T09:57:07.004Z,4.00
2023-03-18T09:59:38.633Z,5.00
2023-03-18T10:02:10.257Z,5.00
2023-03-18T10:04:41.382Z,5.75
2023-03-18T10:07:14.920Z,5.25
2023-03-18T10:09:44.618Z,4.50
2023-03-18T10:12:17.054Z,4.75
2023-03-18T10:14:47.122Z,5.00
2023-03-18T10:17:18.977Z,4.50
2023-03-18T10:19:50.102Z,5.00
2023-03-18T10:22:28.328Z,5.00
2023-03-18T10:24:58.791Z,5.00
2023-03-18T10:27:37.858Z,4.00
2023-03-18T10:30:14.199Z,5.75
2023-03-18T10:32:49.894Z,5.25
2023-03-18T10:35:24.652Z,5.00
2023-03-18T10:37:55.040Z,6.00
2023-03-18T10:40:23.370Z,4.00
2023-03-18T10:42:52.656Z,5.00
2023-03-18T10:45:23.595Z,5.00
2023-03-18T10:47:59.004Z,5.00
2023-03-18T10:50:32.686Z,5.00
2023-03-18T10:53:04.035Z,5.00
2023-03-18T10:55:34.281Z,6.00
2023-03-18T10:58:09.251Z,4.00
2023-03-18T11:00:37.457Z,4.75
2023-03-18T11:03:05.695Z,4.75
2023-03-18T11:05:35.481Z,4.00
2023-03-18T11:08:05.287Z,5.00
2023-03-18T11:10:35.646Z,5.00
2023-03-18T11:13:06.338Z,4.00
2023-03-18T11:15:37.855Z,4.00
2023-03-18T11:18:06.380Z,5.00
2023-03-18T11:20:42.968Z,6.00
2023-03-18T11:23:17.807Z,5.00
2023-03-18T11:25:48.970Z,5.00
2023-03-18T11:28:23.053Z,5.00
2023-03-18T11:30:53.020Z,4.25
2023-03-18T11:33:21.577Z,4.25
2023-03-18T11:35:52.469Z,4.25
2023-03-18T11:38:21.316Z,5.00
2023-03-18T11:40:49.973Z,5.00
2023-03-18T11:43:20.128Z,4.75
2023-03-18T11:45:52.223Z,4.25
2023-03-18T11:48:25.061Z,4.00
2023-03-18T11:51:03.374Z,5.00
2023-03-18T11:53:36.026Z,4.00
2023-03-18T11:56:07.259Z,5.00
2023-03-18T11:58:58.481Z,5.00
2023-03-18T12:01:32.776Z,4.00
2023-03-18T12:04:22.015Z,5.00
2023-03-18T12:06:56.053Z,4.50
2023-03-18T12:09:27.021Z,4.00
2023-03-18T12:12:00.727Z,5.50
2023-03-18T12:14:32.647Z,5.00
2023-03-18T12:17:09.244Z,4.50
2023-03-18T12:20:19.863Z,4.75
2023-03-18T12:23:01.554Z,4.00
2023-03-18T12:25:56.501Z,5.00
2023-03-18T12:28:30.626Z,4.00
2023-03-18T12:31:23.878Z,4.00
2023-03-18T12:33:57.235Z,4.00
2023-03-18T12:36:33.149Z,4.00
2023-03-18T12:39:28.839Z,3.25
2023-03-18T12:42:02.990Z,4.75
2023-03-18T12:44:42.706Z,3.75
2023-03-18T12:47:12.260Z,4.00
2023-03-18T12:49:43.409Z,3.50
2023-03-18T12:52:13.325Z,4.00
2023-03-18T12:54:43.162Z,4.25
2023-03-18T12:57:13.661Z,4.00
2023-03-18T12:59:43.582Z,4.00
2023-03-18T13:02:38.555Z,4.50
2023-03-18T13:05:16.873Z,4.50
2023-03-18T13:07:46.180Z,4.00
2023-03-18T13:10:20.669Z,4.00
2023-03-18T13:12:48.903Z,4.75
2023-03-18T13:15:22.218Z,5.00
2023-03-18T13:17:50.253Z,4.00
2023-03-18T13:20:22.720Z,4.00
2023-03-18T13:23:17.403Z,4.00
2023-03-18T13:25:51.180Z,3.75
2023-03-18T13:28:34.057Z,3.00
2023-03-18T13:31:08.541Z,4.00
2023-03-18T13:33:49.895Z,4.00
2023-03-18T13:36:29.106Z,4.00
2023-03-18T13:39:15.441Z,4.00
2023-03-18T13:42:13.875Z,4.00
2023-03-18T13:44:43.852Z,4.00
2023-03-18T13:47:15.990Z,4.00
2023-03-18T13:49:44.912Z,4.00
2023-03-18T13:52:25.674Z,4.00
2023-03-18T13:54:53.605Z,3.75
2023-03-18T13:57:35.873Z,3.75
2023-03-18T14:00:23.454Z,4.00
2023-03-18T14:03:03.848Z,4.00
2023-03-18T14:05:35.925Z,3.00
2023-03-18T14:08:07.223Z,4.00
2023-03-18T14:10:35.564Z,4.00
2023-03-18T14:13:26.255Z,3.50
2023-03-18T14:15:55.535Z,4.00
2023-03-18T14:18:27.615Z,4.00
2023-03-18T14:21:00.377Z,3.00
2023-03-18T14:23:45.181Z,4.00
2023-03-18T14:26:20.661Z,3.00
2023-03-18T14:28:50.594Z,4.00
2023-03-18T14:31:33.212Z,3.00
2023-03-18T14:34:04.538Z,4.00
2023-03-18T14:37:06.298Z,4.00
2023-03-18T14:39:38.403Z,3.00
2023-03-18T14:42:10.983Z,3.00
2023-03-18T14:44:42.765Z,4.00
2023-03-18T14:47:35.691Z,4.00
2023-03-18T14:50:06.304Z,4.00
2023-03-18T14:52:36.206Z,3.00
2023-03-18T14:55:07.794Z,3.50
2023-03-18T14:57:35.778Z,3.00
2023-03-18T15:00:09.027Z,3.25
2023-03-18T15:02:39.005Z,3.00
2023-03-18T15:05:07.656Z,3.00
2023-03-18T15:07:36.475Z,3.00
2023-03-18T15:10:10.445Z,4.00
2023-03-18T15:12:38.368Z,3.75
2023-03-18T15:15:09.703Z,3.00
2023-03-18T15:17:38.088Z,3.50
2023-03-18T15:20:07.401Z,3.00
2023-03-18T15:22:35.669Z,4.00
2023-03-18T15:25:05.185Z,3.00
2023-03-18T15:27:34.830Z,3.00
2023-03-18T15:30:04.695Z,3.00
2023-03-18T15:32:33.539Z,3.00
2023-03-18T15:35:08.523Z,3.00
2023-03-18T15:37:40.757Z,3.00
2023-03-18T15:40:28.909Z,2.25
2023-03-18T15:42:59.317Z,2.00
2023-03-18T15:45:29.725Z,3.00
2023-03-18T15:47:58.278Z,3.00
2023-03-18T15:50:28.663Z,3.00
2023-03-18T15:53:04.257Z,2.25
2023-03-18T15:55:34.536Z,3.50
2023-03-18T15:58:05.591Z,3.00
2023-03-18T16:00:34.518Z,2.75
2023-03-18T16:03:02.492Z,3.00
2023-03-18T16:05:30.510Z,2.00
2023-03-18T16:07:59.402Z,3.00
2023-03-18T16:10:27.810Z,3.00
2023-03-18T16:12:58.191Z,2.50
2023-03-18T16:15:27.831Z,2.75
2023-03-18T16:17:56.247Z,3.00
2023-03-18T16:20:25.730Z,3.00
2023-03-18T16:22:53.668Z,3.00
2023-03-18T16:25:21.694Z,3.00
2023-03-18T16:27:50.165Z,2.50
2023-03-18T16:30:20.146Z,3.00
2023-03-18T16:32:49.524Z,2.00
2023-03-18T16:35:18.085Z,2.25
2023-03-18T16:37:46.084Z,3.00
2023-03-18T16:40:18.064Z,2.00
2023-03-18T16:42:47.922Z,3.00
2023-03-18T16:45:17.416Z,2.00
2023-03-18T16:47:46.064Z,3.00
2023-03-18T16:50:19.531Z,3.50
2023-03-18T16:52:47.493Z,3.00
2023-03-18T16:55:17.658Z,2.00
2023-03-18T16:57:48.414Z,3.00
2023-03-18T17:00:19.686Z,3.00
2023-03-18T17:02:47.610Z,3.00
2023-03-18T17:05:16.774Z,3.00
2023-03-18T17:07:46.828Z,3.00
2023-03-18T17:10:16.240Z,2.00
2023-03-18T17:12:46.322Z,3.00
2023-03-18T17:15:14.434Z,2.50
2023-03-18T17:17:42.385Z,2.00
2023-03-18T17:20:16.889Z,3.00
2023-03-18T17:22:46.248Z,2.25
2023-03-18T17:25:14.485Z,3.00
2023-03-18T17:27:45.462Z,2.75
2023-03-18T17:30:19.000Z,2.75
2023-03-18T17:32:47.335Z,3.00
2023-03-18T17:35:16.069Z,3.50
2023-03-18T17:37:44.155Z,3.00
2023-03-18T17:40:15.092Z,2.75
2023-03-18T17:42:43.034Z,2.00
2023-03-18T17:45:21.208Z,3.00
2023-03-18T17:47:50.216Z,3.00
2023-03-18T17:50:18.602Z,3.00
2023-03-18T17:52:48.523Z,3.00
2023-03-18T17:55:21.864Z,3.00
2023-03-18T17:57:50.719Z,3.00
2023-03-18T18:00:21.410Z,3.00
2023-03-18T18:02:49.378Z,4.00
2023-03-18T18:05:17.780Z,3.00
2023-03-18T18:07:45.817Z,2.00
2023-03-18T18:10:16.166Z,3.00
2023-03-18T18:12:47.811Z,3.75
2023-03-18T18:15:20.526Z,4.00
2023-03-18T18:17:49.184Z,3.75
2023-03-18T18:20:17.650Z,3.25
2023-03-18T18:22:46.893Z,3.75
2023-03-18T18:25:16.793Z,3.00
2023-03-18T18:27:47.211Z,3.00
2023-03-18T18:30:17.601Z,4.00
2023-03-18T18:32:45.661Z,3.00
2023-03-18T18:35:16.773Z,4.00
2023-03-18T18:37:44.752Z,4.75
2023-03-18T18:40:14.237Z,5.00
2023-03-18T18:42:42.209Z,4.50
2023-03-18T18:45:18.060Z,5.00
2023-03-18T18:47:46.170Z,6.75
2023-03-18T18:50:17.616Z,5.00
2023-03-18T18:52:45.522Z,5.00
2023-03-18T18:55:13.410Z,5.00
2023-03-18T18:57:42.888Z,5.00
2023-03-18T19:00:18.428Z,5.00
2023-03-18T19:02:47.655Z,5.25
2023-03-18T19:05:16.461Z,5.75
2023-03-18T19:07:45.450Z,5.75
2023-03-18T19:10:15.276Z,5.00
2023-03-18T19:12:44.261Z,5.00
2023-03-18T19:15:15.359Z,5.00
2023-03-18T19:17:45.216Z,5.75
2023-03-18T19:20:25.108Z,5.75
2023-03-18T19:22:54.142Z,5.00
2023-03-18T19:25:22.031Z,5.50
2023-03-18T19:27:50.056Z,6.25
2023-03-18T19:30:21.498Z,5.25
2023-03-18T19:32:51.280Z,5.25
2023-03-18T19:35:19.205Z,6.00
2023-03-18T19:37:47.414Z,4.75
2023-03-18T19:40:23.787Z,5.25
2023-03-18T19:42:52.020Z,6.00
2023-03-18T19:45:20.208Z,5.00
2023-03-18T19:47:48.151Z,6.00
2023-03-18T19:50:19.625Z,6.00
2023-03-18T19:52:47.784Z,4.00
2023-03-18T19:55:16.417Z,6.00
2023-03-18T19:57:44.786Z,5.75
2023-03-18T20:00:21.940Z,5.00
2023-03-18T20:02:51.101Z,5.75
2023-03-18T20:05:21.330Z,5.00
2023-03-18T20:07:50.374Z,5.00
2023-03-18T20:10:19.067Z,6.00
2023-03-18T20:12:48.165Z,6.00
2023-03-18T20:15:16.846Z,4.75
2023-03-18T20:17:44.930Z,5.75
2023-03-18T20:20:14.442Z,5.25
2023-03-18T20:22:46.286Z,5.00
2023-03-18T20:25:20.900Z,5.00
2023-03-18T20:27:50.551Z,5.00
2023-03-18T20:30:26.717Z,4.75
2023-03-18T20:32:54.738Z,4.00
2023-03-18T20:35:22.691Z,5.75
2023-03-18T20:37:51.999Z,5.00
2023-03-18T20:40:22.703Z,5.00
2023-03-18T20:42:52.575Z,5.00
2023-03-18T20:45:20.940Z,4.00
2023-03-18T20:47:48.924Z,5.00
2023-03-18T20:50:17.897Z,4.25
2023-03-18T20:52:47.008Z,4.75
2023-03-18T20:55:26.573Z,5.00
2023-03-18T20:57:54.694Z,4.50
2023-03-18T21:00:24.079Z,5.00
2023-03-18T21:02:52.695Z,4.00
2023-03-18T21:05:20.881Z,4.00
2023-03-18T21:07:49.254Z,5.00
2023-03-18T21:10:18.528Z,4.00
2023-03-18T21:12:47.802Z,5.00
2023-03-18T21:15:19.501Z,3.50
2023-03-18T21:17:47.677Z,5.00
2023-03-18T21:20:22.024Z,4.00
2023-03-18T21:22:51.923Z,4.50
2023-03-18T21:25:21.187Z,4.50
2023-03-18T21:27:50.540Z,4.00
2023-03-18T21:30:19.379Z,4.00
2023-03-18T21:32:47.563Z,5.50
2023-03-18T21:35:17.683Z,4.00
2023-03-18T21:37:45.628Z,4.00
2023-03-18T21:40:18.389Z,5.00
2023-03-18T21:42:46.546Z,4.00
2023-03-18T21:45:16.836Z,4.75
2023-03-18T21:47:44.754Z,4.00
2023-03-18T21:50:20.594Z,4.00
2023-03-18T21:52:48.666Z,5.00
2023-03-18T21:55:16.697Z,4.00
2023-03-18T21:57:46.275Z,5.00
2023-03-18T22:00:19.887Z,4.50
2023-03-18T22:02:48.204Z,5.00
2023-03-18T22:05:17.202Z,4.00
2023-03-18T22:07:45.120Z,5.00
2023-03-18T22:10:15.511Z,5.00
2023-03-18T22:12:43.452Z,5.00
2023-03-18T22:15:29.930Z,5.00
2023-03-18T22:17:57.842Z,4.00
2023-03-18T22:20:26.061Z,5.00
2023-03-18T22:22:54.130Z,5.00
2023-03-18T22:25:28.370Z,6.00
2023-03-18T22:27:56.321Z,5.00
2023-03-18T22:30:26.268Z,6.00
2023-03-18T22:32:54.272Z,6.50
2023-03-18T22:35:23.047Z,5.00
2023-03-18T22:37:51.474Z,5.25
2023-03-18T22:40:20.252Z,5.00
2023-03-18T22:42:48.501Z,6.00
2023-03-18T22:45:21.096Z,6.00
2023-03-18T22:47:50.911Z,5.50
2023-03-18T22:50:19.208Z,6.25
2023-03-18T22:52:47.252Z,6.00
2023-03-18T22:55:21.125Z,6.00
2023-03-18T22:57:49.144Z,5.25
2023-03-18T23:00:25.816Z,7.00
2023-03-18T23:02:55.151Z,6.75
2023-03-18T23:05:23.629Z,7.00
2023-03-18T23:07:51.597Z,6.00
2023-03-18T23:10:20.073Z,6.00
2023-03-18T23:12:48.084Z,7.00
2023-03-18T23:15:17.348Z,7.00
2023-03-18T23:17:45.844Z,7.00
2023-03-18T23:20:16.135Z,7.00
2023-03-18T23:22:45.226Z,7.00
2023-03-18T23:25:14.717Z,7.75
2023-03-18T23:27:42.627Z,6.00
2023-03-18T23:30:12.473Z,7.00
2023-03-18T23:32:40.494Z,7.00
2023-03-18T23:35:09.722Z,7.00
2023-03-18T23:37:39.078Z,7.00
2023-03-18T23:40:08.659Z,7.75
2023-03-18T23:42:36.658Z,7.00
2023-03-18T23:45:05.122Z,7.00
2023-03-18T23:47:33.120Z,7.00
2023-03-18T23:50:01.345Z,8.00
2023-03-18T23:52:29.306Z,7.00
2023-03-18T23:54:58.622Z,8.00
2023-03-18T23:57:26.680Z,7.00
2023-03-18T23:59:54.639Z,8.00
